Time;durP1;ratioP1;P1;durP2;ratioP2;P2;SDS_P1;SDS_P2;PMS_P1;PMS_P2;Temp;Humidity;BMP_temperature;BMP_pressure;BME280_temperature;BME280_humidity;BME280_pressure;Samples;Min_cycle;Max_cycle;Signal;HPM_P1;HPM_P2
2021/10/22 00:00:10;;;;;;;2.20;1.35;;;;;;;22.01;39.80;97203.44;5072700;28;20056;-54
2021/10/22 00:02:43;;;;;;;2.88;1.50;;;;;;;22.02;39.75;97215.94;5063107;28;20481;-51
2021/10/22 00:05:13;;;;;;;2.88;1.40;;;;;;;22.01;39.85;97225.94;5057149;28;20060;-52
2021/10/22 00:07:42;;;;;;;1.80;1.35;;;;;;;22.01;39.83;97211.56;5058690;28;20064;-46
2021/10/22 00:10:10;;;;;;;2.80;1.70;;;;;;;22.01;39.68;97220.53;5070632;28;20056;-53
2021/10/22 00:12:38;;;;;;;2.13;1.45;;;;;;;22.01;39.68;97214.25;5072065;28;20057;-53
2021/10/22 00:15:08;;;;;;;1.85;1.10;;;;;;;22.01;39.69;97215.13;5059913;28;20052;-53
2021/10/22 00:17:37;;;;;;;1.95;1.25;;;;;;;22.01;39.61;97222.38;5079144;28;20063;-57
2021/10/22 00:20:07;;;;;;;1.52;1.10;;;;;;;21.99;39.56;97222.59;5071294;28;20049;-53
2021/10/22 00:22:36;;;;;;;1.67;1.20;;;;;;;22.00;39.59;97231.53;5065688;28;20053;-55
2021/10/22 00:25:06;;;;;;;1.88;1.20;;;;;;;22.02;39.44;97237.59;5071218;28;20060;-54
2021/10/22 00:27:33;;;;;;;1.80;1.10;;;;;;;22.00;39.32;97232.38;5068695;28;20079;-54
2021/10/22 00:30:01;;;;;;;1.45;0.93;;;;;;;22.00;39.15;97226.13;5063190;28;20067;-55
2021/10/22 00:32:30;;;;;;;2.28;1.23;;;;;;;22.01;39.13;97241.31;5059923;28;20525;-53
2021/10/22 00:34:57;;;;;;;2.35;1.35;;;;;;;22.00;39.14;97240.50;5074662;28;20072;-53
2021/10/22 00:37:25;;;;;;;2.08;1.10;;;;;;;22.01;39.21;97235.91;5078957;28;20044;-53
2021/10/22 00:39:55;;;;;;;1.73;1.17;;;;;;;22.00;39.14;97237.78;5066297;28;20055;-57
2021/10/22 00:42:23;;;;;;;1.98;1.60;;;;;;;22.00;39.17;97242.38;5068771;28;20049;-54
2021/10/22 00:44:51;;;;;;;2.25;1.85;;;;;;;21.99;38.95;97241.53;5060470;28;20557;-55
2021/10/22 00:47:19;;;;;;;1.90;1.20;;;;;;;21.99;38.84;97244.25;5062621;28;20501;-56
2021/10/22 00:49:47;;;;;;;2.33;1.30;;;;;;;22.00;38.98;97245.91;5057780;28;20049;-52
2021/10/22 00:52:16;;;;;;;1.10;0.85;;;;;;;22.00;38.95;97254.03;5073937;28;20056;-56
2021/10/22 00:54:43;;;;;;;1.60;1.02;;;;;;;21.99;38.81;97246.13;5064459;28;20056;-54
2021/10/22 00:57:14;;;;;;;1.30;0.90;;;;;;;22.00;38.80;97250.50;5062201;28;20068;-56
2021/10/22 00:59:42;;;;;;;1.90;0.80;;;;;;;22.00;38.73;97262.13;5060594;28;20060;-52
2021/10/22 01:02:10;;;;;;;1.45;0.93;;;;;;;21.98;38.60;97258.81;5071095;28;20060;-56
2021/10/22 01:04:39;;;;;;;1.52;1.00;;;;;;;21.99;38.62;97271.31;5072568;28;20052;-56
2021/10/22 01:07:06;;;;;;;1.88;0.93;;;;;;;21.99;38.67;97267.78;5076147;28;20417;-54
2021/10/22 01:09:34;;;;;;;1.38;0.73;;;;;;;21.95;38.64;97270.06;5069002;28;20057;-52
2021/10/22 01:12:02;;;;;;;0.98;0.70;;;;;;;21.98;38.62;97261.53;5062261;28;20067;-54
2021/10/22 01:14:31;;;;;;;1.88;0.98;;;;;;;22.00;38.53;97261.31;5068175;28;20057;-58
2021/10/22 01:16:59;;;;;;;1.50;0.90;;;;;;;21.97;38.55;97273.38;5067713;28;20053;-56
2021/10/22 01:19:27;;;;;;;1.20;0.70;;;;;;;21.97;38.49;97281.50;5063696;28;20075;-57
2021/10/22 01:21:56;;;;;;;1.08;0.68;;;;;;;21.98;38.28;97272.34;5062040;28;20049;-54
2021/10/22 01:24:26;;;;;;;1.15;0.80;;;;;;;21.97;38.29;97261.72;5065844;28;20425;-54
2021/10/22 01:26:54;;;;;;;1.35;0.80;;;;;;;21.99;38.14;97260.47;5059944;28;20060;-54
2021/10/22 01:29:22;;;;;;;1.30;0.70;;;;;;;21.97;38.13;97261.72;5063012;28;20413;-55
2021/10/22 01:31:51;;;;;;;1.02;0.68;;;;;;;21.98;38.13;97274.25;5059941;28;20056;-56
2021/10/22 01:34:20;;;;;;;1.30;0.88;;;;;;;21.98;38.14;97274.25;5056547;28;20048;-54
2021/10/22 01:36:49;;;;;;;1.25;0.70;;;;;;;21.96;38.12;97260.91;5054712;28;20064;-48
2021/10/22 01:39:18;;;;;;;1.55;0.98;;;;;;;21.98;38.02;97268.81;5070487;28;20055;-49
2021/10/22 01:41:46;;;;;;;1.42;0.60;;;;;;;21.97;37.94;97270.66;5061529;28;20056;-54
2021/10/22 01:44:16;;;;;;;1.00;0.60;;;;;;;21.91;38.08;97269.63;5070597;28;20442;-58
2021/10/22 01:46:43;;;;;;;1.48;0.70;;;;;;;21.98;37.87;97287.75;5066723;28;20539;-51
2021/10/22 01:49:11;;;;;;;1.63;0.77;;;;;;;21.97;37.81;97286.91;5057505;28;20440;-57
2021/10/22 01:51:39;;;;;;;0.80;0.65;;;;;;;21.97;37.93;97299.59;5059842;28;20060;-55
2021/10/22 01:54:07;;;;;;;1.40;0.63;;;;;;;21.97;37.86;97299.59;5065197;28;20063;-58
2021/10/22 01:56:36;;;;;;;1.38;0.60;;;;;;;21.96;37.68;97306.91;5060483;28;20064;-58
2021/10/22 01:59:04;;;;;;;1.58;0.70;;;;;;;21.96;37.54;97292.53;5068598;28;20063;-52
2021/10/22 02:01:32;;;;;;;1.13;0.60;;;;;;;21.96;37.73;97303.38;5067588;28;20075;-57
2021/10/22 02:04:00;;;;;;;0.77;0.50;;;;;;;21.96;37.68;97300.66;5070929;28;20044;-56
2021/10/22 02:06:28;;;;;;;1.13;0.70;;;;;;;21.96;37.73;97292.53;5080647;28;20521;-56
2021/10/22 02:08:56;;;;;;;0.68;0.47;;;;;;;21.95;37.56;97297.13;5065869;28;20063;-55
2021/10/22 02:11:24;;;;;;;1.52;0.60;;;;;;;21.96;37.51;97312.31;5069877;28;20068;-54
2021/10/22 02:13:55;;;;;;;1.27;0.75;;;;;;;21.96;37.47;97306.91;5067921;28;20055;-56
2021/10/22 02:16:23;;;;;;;1.08;0.47;;;;;;;21.97;37.44;97310.44;5075604;28;20063;-54
2021/10/22 02:18:53;;;;;;;1.25;0.63;;;;;;;21.96;37.32;97300.66;5071735;28;20493;-54
2021/10/22 02:21:21;;;;;;;1.95;0.80;;;;;;;21.96;37.52;97306.06;5074595;28;20412;-55
2021/10/22 02:23:49;;;;;;;1.35;0.70;;;;;;;21.91;37.33;97304.81;5067191;28;20064;-52
2021/10/22 02:26:16;;;;;;;1.02;0.63;;;;;;;21.93;37.35;97313.53;5072817;28;20413;-51
2021/10/22 02:28:44;;;;;;;1.58;0.90;;;;;;;21.95;37.29;97323.34;5065066;28;20040;-56
2021/10/22 02:31:15;;;;;;;1.25;0.60;;;;;;;21.96;37.40;97316.91;5058401;28;20725;-53
2021/10/22 02:33:43;;;;;;;1.45;0.60;;;;;;;21.95;37.27;97313.34;5057420;28;20056;-55
2021/10/22 02:36:10;;;;;;;1.38;0.80;;;;;;;21.86;37.24;97280.22;5057984;28;20052;-56
2021/10/22 02:38:38;;;;;;;0.90;0.40;;;;;;;21.93;37.21;97305.44;5063024;28;20053;-56
2021/10/22 02:41:09;;;;;;;1.02;0.70;;;;;;;21.95;36.88;97304.41;5061324;28;20052;-56
2021/10/22 02:43:37;;;;;;;1.60;0.70;;;;;;;21.95;37.06;97309.81;5065827;28;20074;-55
2021/10/22 02:46:04;;;;;;;1.42;0.65;;;;;;;21.93;36.85;97312.72;5073907;28;20045;-51
2021/10/22 02:48:34;;;;;;;0.95;0.60;;;;;;;21.93;36.89;97304.59;5071357;28;20427;-56
2021/10/22 02:51:01;;;;;;;0.63;0.40;;;;;;;21.93;36.82;97313.53;5076139;28;20056;-56
2021/10/22 02:53:29;;;;;;;0.75;0.50;;;;;;;21.92;36.74;97317.31;5097247;28;20496;-59
2021/10/22 02:55:57;;;;;;;1.13;0.50;;;;;;;21.93;36.75;97327.06;5056120;28;20390;-56
2021/10/22 02:58:25;;;;;;;0.43;0.30;;;;;;;21.89;36.93;97319.59;5064334;28;20485;-56
2021/10/22 03:00:53;;;;;;;0.95;0.45;;;;;;;21.93;36.83;97339.78;5068071;28;20047;-57
2021/10/22 03:03:20;;;;;;;0.68;0.50;;;;;;;21.92;36.58;97330.00;5061384;28;20056;-54
2021/10/22 03:05:50;;;;;;;1.77;0.50;;;;;;;21.91;36.54;97331.88;5064620;28;20417;-51
2021/10/22 03:08:18;;;;;;;1.33;0.60;;;;;;;21.92;36.53;97298.34;5068354;28;20060;-56
2021/10/22 03:10:47;;;;;;;1.02;0.57;;;;;;;21.93;36.45;97326.25;5060030;28;20052;-52
2021/10/22 03:13:15;;;;;;;0.93;0.50;;;;;;;21.93;36.53;97323.53;5060719;28;20052;-56
2021/10/22 03:15:43;;;;;;;0.50;0.32;;;;;;;21.92;36.44;97322.72;5070742;28;20063;-56
2021/10/22 03:18:11;;;;;;;0.90;0.50;;;;;;;21.91;36.42;97314.81;5068971;28;20060;-53
2021/10/22 03:20:38;;;;;;;0.80;0.35;;;;;;;21.91;36.46;97325.63;5064132;28;20041;-53
2021/10/22 03:23:08;;;;;;;1.10;0.50;;;;;;;21.92;36.27;97321.88;5057776;28;20056;-53
2021/10/22 03:25:35;;;;;;;1.05;0.32;;;;;;;21.91;36.29;97323.75;5078826;28;20542;-57
2021/10/22 03:28:05;;;;;;;0.75;0.40;;;;;;;21.91;36.08;97323.75;5055423;28;20648;-58
2021/10/22 03:30:33;;;;;;;1.00;0.73;;;;;;;21.91;36.05;97326.47;5070160;28;20146;-56
2021/10/22 03:33:01;;;;;;;0.75;0.40;;;;;;;21.90;36.15;97324.81;5052247;28;20056;-55
2021/10/22 03:35:29;;;;;;;0.98;0.40;;;;;;;21.89;35.89;97322.28;5060810;28;20061;-57
2021/10/22 03:37:56;;;;;;;0.70;0.40;;;;;;;21.90;36.09;97307.72;5061504;28;20477;-58
2021/10/22 03:40:27;;;;;;;1.02;0.40;;;;;;;21.90;36.19;97327.50;5053203;28;20052;-57
2021/10/22 03:42:56;;;;;;;0.60;0.40;;;;;;;21.90;36.07;97326.66;5073290;28;20052;-52
2021/10/22 03:45:25;;;;;;;1.60;0.55;;;;;;;21.89;35.73;97331.25;5063842;28;20067;-57
2021/10/22 03:47:53;;;;;;;1.05;0.40;;;;;;;21.89;35.95;97341.22;5055957;28;20045;-56
2021/10/22 03:50:22;;;;;;;0.93;0.50;;;;;;;21.88;35.81;97340.41;5063404;28;20045;-54
2021/10/22 03:52:50;;;;;;;1.00;0.60;;;;;;;21.90;35.71;97329.34;5058449;28;20409;-52
2021/10/22 03:55:18;;;;;;;0.93;0.63;;;;;;;21.90;35.74;97340.19;5052052;28;20049;-52
2021/10/22 03:57:47;;;;;;;0.73;0.40;;;;;;;21.88;35.81;97335.00;5057939;28;20056;-53
2021/10/22 04:00:15;;;;;;;1.35;0.50;;;;;;;21.88;35.64;97340.41;5064966;28;20055;-59
2021/10/22 04:02:44;;;;;;;1.27;0.35;;;;;;;21.88;35.64;97329.56;5077730;28;20056;-54
2021/10/22 04:05:13;;;;;;;0.60;0.30;;;;;;;21.89;35.67;97327.69;5058903;28;20048;-54
2021/10/22 04:07:43;;;;;;;0.63;0.30;;;;;;;21.88;35.48;97324.16;5069381;28;20665;-56
2021/10/22 04:10:13;;;;;;;1.13;0.40;;;;;;;21.89;35.46;97330.41;5071990;28;20044;-57
2021/10/22 04:12:44;;;;;;;0.98;0.60;;;;;;;21.90;35.47;97326.66;5056777;28;20057;-53
2021/10/22 04:15:13;;;;;;;1.17;0.65;;;;;;;21.89;35.50;97325.81;5057221;28;20056;-55
2021/10/22 04:17:41;;;;;;;2.22;0.55;;;;;;;21.87;35.32;97329.78;5081322;28;20059;-53
2021/10/22 04:20:10;;;;;;;0.50;0.30;;;;;;;21.89;35.32;97325.00;5062882;28;20060;-51
2021/10/22 04:22:38;;;;;;;0.73;0.40;;;;;;;21.88;35.33;97334.16;5048242;28;20055;-51
2021/10/22 04:25:06;;;;;;;0.90;0.38;;;;;;;21.86;35.11;97318.09;5085279;28;20056;-52
2021/10/22 04:27:35;;;;;;;0.60;0.40;;;;;;;21.88;35.35;97320.63;5063866;28;20048;-55
2021/10/22 04:30:05;;;;;;;1.35;0.50;;;;;;;21.86;35.35;97334.34;5055794;28;20052;-50
2021/10/22 04:32:34;;;;;;;0.60;0.30;;;;;;;21.85;35.20;97332.69;5059690;28;20052;-57
2021/10/22 04:35:02;;;;;;;1.88;0.50;;;;;;;21.87;35.00;97343.31;5049963;28;20057;-51
2021/10/22 04:37:33;;;;;;;0.88;0.40;;;;;;;21.87;35.11;97338.75;5077643;28;20044;-56
2021/10/22 04:42:48;;;;;;;1.10;0.50;;;;;;;21.88;34.97;97342.28;5060806;28;20064;-51
2021/10/22 04:45:17;;;;;;;0.63;0.38;;;;;;;21.86;35.11;97344.34;5073994;28;20416;-51
2021/10/22 04:47:46;;;;;;;0.50;0.35;;;;;;;21.86;35.06;97347.03;5066891;28;20518;-59
2021/10/22 04:50:14;;;;;;;0.60;0.30;;;;;;;21.87;34.94;97363.09;5063322;28;20547;-57
2021/10/22 04:52:42;;;;;;;1.08;0.40;;;;;;;21.86;35.12;97355.16;5062548;28;20053;-57
2021/10/22 04:55:11;;;;;;;1.27;0.38;;;;;;;21.87;34.92;97373.09;5067950;28;20528;-56
2021/10/22 04:57:38;;;;;;;0.50;0.40;;;;;;;21.86;34.88;97360.56;5065340;28;20505;-56
2021/10/22 05:00:07;;;;;;;0.63;0.30;;;;;;;21.85;34.88;97370.56;5067643;28;20056;-54
2021/10/22 05:02:35;;;;;;;0.40;0.28;;;;;;;21.85;34.74;97359.75;5073760;28;20603;-59
2021/10/22 05:05:06;;;;;;;0.68;0.30;;;;;;;21.86;34.85;97364.09;5067290;28;20044;-53
2021/10/22 05:07:34;;;;;;;0.88;0.30;;;;;;;21.86;34.66;97360.56;5070450;28;20508;-51
2021/10/22 05:10:04;;;;;;;1.17;0.50;;;;;;;21.84;34.81;97349.97;5064342;28;20401;-57
2021/10/22 05:12:31;;;;;;;0.43;0.30;;;;;;;21.86;34.74;97360.56;5067650;28;20064;-58
2021/10/22 05:14:59;;;;;;;0.60;0.40;;;;;;;21.86;34.65;97366.81;5063913;28;20045;-55
2021/10/22 05:17:27;;;;;;;0.80;0.30;;;;;;;21.84;34.58;97358.09;5070503;28;20074;-49
2021/10/22 05:19:55;;;;;;;0.68;0.30;;;;;;;21.86;34.75;97355.16;5062520;28;20416;-56
2021/10/22 05:22:25;;;;;;;1.98;0.50;;;;;;;21.84;34.61;97363.50;5063883;28;20063;-58
2021/10/22 05:24:54;;;;;;;0.88;0.20;;;;;;;21.86;34.53;97363.28;5068052;28;20441;-57
2021/10/22 05:27:22;;;;;;;0.35;0.28;;;;;;;21.85;34.61;97369.75;5058746;28;20051;-56
2021/10/22 05:29:49;;;;;;;0.80;0.30;;;;;;;21.84;34.65;97376.19;5059369;28;20684;-56
2021/10/22 05:32:17;;;;;;;0.40;0.28;;;;;;;21.85;34.57;97375.16;5058429;28;20060;-55
2021/10/22 05:34:45;;;;;;;0.73;0.40;;;;;;;21.85;34.48;97375.97;5059164;28;20409;-53
2021/10/22 05:37:13;;;;;;;0.50;0.20;;;;;;;21.82;34.24;97387.19;5063249;28;20405;-54
2021/10/22 05:39:42;;;;;;;0.85;0.30;;;;;;;21.84;34.39;97393.25;5064838;28;20060;-55
2021/10/22 05:42:10;;;;;;;0.50;0.20;;;;;;;21.84;34.42;97395.97;5065176;28;20059;-59
2021/10/22 05:44:38;;;;;;;0.98;0.38;;;;;;;21.83;34.32;97399.72;5065650;28;20397;-54
2021/10/22 05:47:05;;;;;;;0.70;0.30;;;;;;;21.83;34.25;97391.59;5067902;28;20587;-60
2021/10/22 05:49:36;;;;;;;0.50;0.17;;;;;;;21.83;34.10;97394.31;5057074;28;20052;-54
2021/10/22 05:52:04;;;;;;;0.38;0.20;;;;;;;21.84;34.16;97408.66;5061458;28;20049;-53
2021/10/22 05:54:32;;;;;;;0.30;0.30;;;;;;;21.84;33.98;97409.50;5060297;28;20752;-51
2021/10/22 05:57:01;;;;;;;1.17;0.30;;;;;;;21.85;33.95;97407.63;5059864;28;20061;-56
2021/10/22 05:59:29;;;;;;;1.25;0.22;;;;;;;21.84;34.14;97401.38;5071783;28;20052;-58
2021/10/22 06:01:57;;;;;;;0.52;0.30;;;;;;;21.84;34.05;97400.53;5056788;28;20048;-53
2021/10/22 06:04:29;;;;;;;0.65;0.30;;;;;;;21.84;34.14;97398.66;5062247;28;20044;-54
2021/10/22 06:06:57;;;;;;;1.35;0.28;;;;;;;21.83;34.23;97388.91;5074059;28;20055;-54
2021/10/22 06:09:25;;;;;;;0.70;0.30;;;;;;;21.84;34.20;97408.66;5059236;28;20076;-51
2021/10/22 06:11:53;;;;;;;0.80;0.40;;;;;;;21.82;33.85;97402.59;5053583;28;20052;-50
2021/10/22 06:14:22;;;;;;;0.63;0.30;;;;;;;21.83;34.03;97396.16;5057240;28;20818;-53
2021/10/22 06:16:50;;;;;;;0.98;0.55;;;;;;;21.84;34.05;97419.50;5059597;28;20049;-57
2021/10/22 06:19:21;;;;;;;0.40;0.40;;;;;;;21.83;33.74;97410.53;5059592;28;20079;-53
2021/10/22 06:22:06;;;;;;;0.57;0.20;;;;;;;21.84;33.82;97430.31;5055290;28;20048;-56
2021/10/22 06:24:35;;;;;;;0.50;0.30;;;;;;;21.84;33.84;97427.59;5056348;28;20054;-54
2021/10/22 06:27:03;;;;;;;1.48;0.40;;;;;;;21.84;33.73;97441.13;5057925;28;20052;-54
2021/10/22 06:29:33;;;;;;;1.17;0.30;;;;;;;21.83;33.70;97437.59;5056987;28;20500;-56
2021/10/22 06:32:02;;;;;;;0.50;0.30;;;;;;;21.83;33.71;97428.63;5055371;28;20075;-54
2021/10/22 06:34:29;;;;;;;0.40;0.20;;;;;;;21.79;33.66;97419.25;5056097;28;20055;-56
2021/10/22 06:36:57;;;;;;;0.30;0.20;;;;;;;21.82;33.63;97418.84;5055481;28;20057;-57
2021/10/22 06:39:25;;;;;;;0.38;0.32;;;;;;;21.83;33.71;97436.72;5055093;28;20130;-56
2021/10/22 06:41:53;;;;;;;0.30;0.30;;;;;;;21.81;33.58;97439.66;5054118;28;20045;-53
2021/10/22 06:44:23;;;;;;;1.38;0.93;;;;;;;21.81;33.54;97463.19;5059662;28;20052;-54
2021/10/22 06:46:52;;;;;;;0.75;0.28;;;;;;;21.81;33.49;97477.53;5057981;28;20064;-54
2021/10/22 06:49:20;;;;;;;1.10;0.30;;;;;;;21.82;33.64;97500.84;5055297;28;20045;-55
2021/10/22 06:51:48;;;;;;;1.60;0.45;;;;;;;21.83;33.49;97498.97;5052756;28;20052;-54
2021/10/22 06:54:16;;;;;;;0.77;0.40;;;;;;;21.83;33.52;97488.16;5056874;28;20044;-53
2021/10/22 06:56:44;;;;;;;1.02;0.30;;;;;;;21.81;33.57;97482.94;5041066;28;20049;-57
2021/10/22 06:59:12;;;;;;;1.10;0.30;;;;;;;21.81;33.46;97466.72;5068132;28;20053;-50
2021/10/22 07:01:40;;;;;;;0.75;0.40;;;;;;;21.82;33.52;97467.53;5052242;28;20460;-51
2021/10/22 07:04:11;;;;;;;1.85;0.63;;;;;;;21.82;33.57;97471.06;5054474;28;20049;-54
2021/10/22 07:09:25;;;;;;;1.45;0.28;;;;;;;21.83;33.32;97461.09;5052157;28;20059;-54
2021/10/22 07:11:53;;;;;;;0.77;0.40;;;;;;;21.74;33.64;97454.19;5050053;28;20045;-53
2021/10/22 07:14:21;;;;;;;1.35;0.40;;;;;;;21.82;33.66;97457.56;5051187;28;20709;-53
2021/10/22 07:16:48;;;;;;;0.40;0.30;;;;;;;21.79;35.09;97452.53;5051068;28;20059;-54
2021/10/22 07:19:17;;;;;;;0.85;0.30;;;;;;;21.80;34.99;97467.75;5044780;28;20071;-55
2021/10/22 07:21:49;;;;;;;1.70;0.60;;;;;;;21.83;35.57;97466.50;5052033;28;20044;-54
2021/10/22 07:24:20;;;;;;;0.95;0.32;;;;;;;21.82;35.58;97460.25;5054844;28;20052;-51
2021/10/22 07:26:48;;;;;;;0.75;0.40;;;;;;;21.83;35.94;97467.34;5049391;28;20048;-56
2021/10/22 07:29:17;;;;;;;1.35;0.45;;;;;;;21.82;36.16;97456.72;5048217;28;20052;-56
2021/10/22 07:31:45;;;;;;;0.30;0.22;;;;;;;21.83;36.26;97458.38;5047276;28;20068;-53
2021/10/22 07:34:14;;;;;;;1.38;0.30;;;;;;;21.85;36.34;97481.50;5048584;28;20059;-57
2021/10/22 07:36:46;;;;;;;0.73;0.25;;;;;;;21.84;36.56;97465.47;5050550;28;20159;-54
2021/10/22 07:39:14;;;;;;;1.17;0.30;;;;;;;21.85;36.55;97483.38;5051813;28;20432;-55
2021/10/22 07:41:41;;;;;;;0.98;0.40;;;;;;;21.86;36.74;97485.03;5051826;28;20056;-52
2021/10/22 07:44:10;;;;;;;1.02;0.30;;;;;;;21.86;36.52;97485.03;5041858;28;20071;-56
2021/10/22 07:46:37;;;;;;;0.70;0.40;;;;;;;21.86;36.89;97485.03;5044009;28;20057;-55
2021/10/22 07:49:05;;;;;;;0.75;0.30;;;;;;;21.86;36.70;97474.22;5046814;28;20107;-53
2021/10/22 07:51:44;;;;;;;0.98;0.30;;;;;;;21.87;36.96;97486.75;5055180;28;20045;-58
2021/10/22 07:54:12;;;;;;;1.17;0.40;;;;;;;21.87;37.09;97487.56;5037902;28;20072;-57
2021/10/22 07:56:43;;;;;;;1.17;0.50;;;;;;;21.88;37.19;97485.69;5042483;28;20060;-56
2021/10/22 07:59:11;;;;;;;2.33;0.40;;;;;;;21.87;37.11;97506.50;5046247;28;20056;-57
2021/10/22 08:01:39;;;;;;;0.77;0.40;;;;;;;21.88;37.11;97500.06;5040730;28;20059;-55
2021/10/22 08:04:07;;;;;;;0.60;0.22;;;;;;;21.87;37.39;97492.97;5042597;28;21841;-50
2021/10/22 08:06:36;;;;;;;0.80;0.30;;;;;;;21.88;37.33;97504.63;5042223;28;20606;-55
2021/10/22 08:09:05;;;;;;;0.68;0.30;;;;;;;21.88;37.45;97504.63;5040741;28;20554;-58
2021/10/22 08:11:33;;;;;;;0.52;0.30;;;;;;;21.87;37.42;97503.81;5035590;28;20045;-57
2021/10/22 08:14:01;;;;;;;1.00;0.30;;;;;;;21.88;37.44;97516.28;5039638;28;20063;-55
2021/10/22 08:16:29;;;;;;;1.52;0.30;;;;;;;21.88;37.45;97500.06;5035445;28;20056;-55
2021/10/22 08:18:57;;;;;;;0.20;0.10;;;;;;;21.90;37.50;97507.97;5038103;28;20080;-59
2021/10/22 08:21:45;;;;;;;0.77;0.30;;;;;;;21.90;37.73;97514.22;5039568;28;20072;-55
2021/10/22 08:24:14;;;;;;;0.90;0.20;;;;;;;21.93;38.12;97512.97;5039951;28;20052;-54
2021/10/22 08:26:42;;;;;;;0.85;0.43;;;;;;;21.92;38.15;97516.72;5042789;28;20048;-57
2021/10/22 08:29:10;;;;;;;0.28;0.20;;;;;;;21.95;38.38;97521.75;5040862;28;20052;-51
2021/10/22 08:31:38;;;;;;;0.32;0.15;;;;;;;21.93;38.46;97519.22;5043040;28;22015;-53
2021/10/22 08:34:06;;;;;;;2.25;0.55;;;;;;;21.95;38.93;97524.44;5040720;28;20839;-52
2021/10/22 08:36:34;;;;;;;0.75;0.30;;;;;;;22.00;38.50;97535.50;5042002;28;20052;-54
2021/10/22 08:39:02;;;;;;;0.35;0.20;;;;;;;22.04;38.99;97534.09;5043618;28;20063;-53
2021/10/22 08:41:34;;;;;;;1.88;0.40;;;;;;;22.10;38.83;97524.31;5040362;28;20060;-56
2021/10/22 08:44:03;;;;;;;1.15;0.30;;;;;;;22.11;38.84;97543.06;5038944;28;20067;-53
2021/10/22 08:46:33;;;;;;;0.50;0.22;;;;;;;22.14;39.11;97534.56;5043133;28;20072;-53
2021/10/22 08:49:01;;;;;;;1.88;0.35;;;;;;;22.15;38.67;97536.25;5034269;28;20044;-56
2021/10/22 08:51:29;;;;;;;2.40;0.80;;;;;;;22.19;39.14;97544.81;5042399;28;20755;-57
2021/10/22 08:54:00;;;;;;;1.33;0.25;;;;;;;22.24;39.21;97557.72;5037910;28;20444;-54
2021/10/22 08:56:28;;;;;;;1.48;0.50;;;;;;;22.24;39.35;97555.84;5035559;28;20198;-55
2021/10/22 08:58:57;;;;;;;1.73;0.20;;;;;;;22.28;39.35;97561.69;5039587;28;20146;-56
2021/10/22 09:01:25;;;;;;;1.65;0.82;;;;;;;22.29;39.48;97557.94;5040372;28;20059;-53
2021/10/22 09:03:53;;;;;;;1.85;0.40;;;;;;;22.32;39.53;97558.41;5039495;28;20045;-54
2021/10/22 09:06:21;;;;;;;0.88;0.30;;;;;;;22.33;39.48;97562.78;5043502;28;20059;-52
2021/10/22 09:08:54;;;;;;;0.52;0.25;;;;;;;22.35;39.37;97554.44;5048589;28;20060;-53
2021/10/22 09:11:23;;;;;;;0.98;0.28;;;;;;;22.37;39.47;97591.13;5043872;28;20063;-56
2021/10/22 09:14:03;;;;;;;0.77;0.30;;;;;;;22.41;39.23;97575.31;5040031;28;20762;-57
2021/10/22 09:16:32;;;;;;;1.08;0.30;;;;;;;22.42;38.54;97574.25;5043730;28;20059;-55
2021/10/22 09:19:00;;;;;;;2.05;0.50;;;;;;;22.40;37.81;97568.22;5043583;28;20453;-55
2021/10/22 09:21:29;;;;;;;1.15;0.40;;;;;;;22.37;38.23;97585.72;5039009;28;20080;-56
2021/10/22 09:24:15;;;;;;;5.07;0.57;;;;;;;22.39;37.27;97590.91;5039456;28;20056;-50
2021/10/22 09:26:50;;;;;;;3.33;0.60;;;;;;;22.38;37.76;97594.66;5039289;28;20068;-54
2021/10/22 09:29:20;;;;;;;1.67;0.28;;;;;;;22.40;37.44;97581.78;5036348;28;20068;-53
2021/10/22 09:31:49;;;;;;;1.25;0.30;;;;;;;22.41;36.90;97596.16;5037497;28;20056;-59
2021/10/22 09:34:29;;;;;;;1.80;0.60;;;;;;;22.32;36.88;97599.03;5040150;28;20517;-54
2021/10/22 09:37:00;;;;;;;1.83;0.32;;;;;;;22.63;36.08;97605.81;5045304;28;20053;-57
2021/10/22 09:39:33;;;;;;;1.05;0.60;;;;;;;23.04;34.73;97607.66;5044029;28;20056;-55
2021/10/22 09:42:01;;;;;;;2.88;0.50;;;;;;;23.23;34.86;97596.00;5047903;28;20056;-54
2021/10/22 09:44:32;;;;;;;1.35;0.38;;;;;;;23.30;33.59;97596.84;5050161;28;20938;-52
2021/10/22 09:47:13;;;;;;;1.80;0.47;;;;;;;23.24;33.80;97594.97;5039777;28;20063;-57
2021/10/22 09:49:42;;;;;;;1.35;0.40;;;;;;;23.16;33.76;97600.56;5041230;28;20064;-54
2021/10/22 09:52:14;;;;;;;1.50;0.50;;;;;;;23.03;34.14;97603.28;5045763;28;20049;-57
2021/10/22 09:54:42;;;;;;;0.73;0.40;;;;;;;22.85;33.92;97582.97;5039406;28;20060;-54
2021/10/22 09:57:10;;;;;;;3.53;0.70;;;;;;;22.89;34.05;97591.53;5036616;28;20048;-55
2021/10/22 09:59:40;;;;;;;1.27;0.38;;;;;;;22.57;33.47;97550.59;5035393;28;20057;-56
2021/10/22 10:02:09;;;;;;;5.30;0.70;;;;;;;22.88;33.09;97619.66;5037069;28;20099;-55
2021/10/22 10:04:37;;;;;;;4.80;0.82;;;;;;;22.46;33.46;97572.81;5027456;28;20076;-59
2021/10/22 10:07:06;;;;;;;1.08;0.30;;;;;;;22.73;32.67;97611.69;5042455;28;20052;-56
2021/10/22 10:09:37;;;;;;;7.35;0.70;;;;;;;22.67;32.55;97628.75;5039506;28;20048;-53
2021/10/22 10:12:05;;;;;;;4.03;0.55;;;;;;;22.59;33.44;97637.06;5041716;28;20068;-55
2021/10/22 10:14:33;;;;;;;2.15;0.40;;;;;;;22.58;33.24;97635.41;5045100;28;20045;-56
2021/10/22 10:17:05;;;;;;;3.53;0.45;;;;;;;22.56;33.35;97643.72;5038205;28;20060;-55
2021/10/22 10:19:35;;;;;;;3.13;0.43;;;;;;;22.54;33.48;97637.69;5056631;28;20079;-54
2021/10/22 10:22:06;;;;;;;2.72;0.47;;;;;;;22.87;32.87;97635.09;5034462;28;20556;-56
2021/10/22 10:24:35;;;;;;;3.67;0.57;;;;;;;23.22;32.87;97647.75;5058259;28;20060;-57
2021/10/22 10:27:06;;;;;;;1.10;0.40;;;;;;;23.43;32.33;97639.44;5038583;28;20063;-55
2021/10/22 10:29:36;;;;;;;1.95;0.30;;;;;;;23.69;31.92;97654.97;5039418;28;20052;-56
2021/10/22 10:32:06;;;;;;;4.57;0.68;;;;;;;23.58;32.48;97659.06;5039805;28;20058;-55
2021/10/22 10:34:44;;;;;;;2.45;0.50;;;;;;;23.46;32.49;97652.59;5042555;28;20060;-56
2021/10/22 10:37:29;;;;;;;2.55;0.43;;;;;;;23.36;32.45;97660.28;5040327;28;20063;-53
2021/10/22 10:40:14;;;;;;;2.67;0.43;;;;;;;23.29;33.25;97657.56;5039075;28;20052;-48
2021/10/22 10:42:46;;;;;;;1.35;0.28;;;;;;;23.29;32.97;97656.72;5024545;28;20519;-58
2021/10/22 10:45:43;;;;;;;2.70;0.45;;;;;;;23.26;32.95;97666.09;5052037;28;20059;-58
2021/10/22 10:48:17;;;;;;;1.00;0.30;;;;;;;23.21;33.40;97655.06;5040339;28;20057;-61
2021/10/22 10:50:49;;;;;;;2.37;0.40;;;;;;;23.09;33.36;97683.78;5048226;28;20068;-56
2021/10/22 10:53:19;;;;;;;1.65;0.40;;;;;;;23.02;33.54;97678.34;5042449;28;20048;-55
2021/10/22 10:55:48;;;;;;;2.63;0.40;;;;;;;22.93;33.36;97676.84;5034538;28;20083;-56
2021/10/22 10:58:17;;;;;;;3.58;0.50;;;;;;;22.91;33.20;97680.75;5039249;28;20056;-59
2021/10/22 11:00:46;;;;;;;1.45;0.32;;;;;;;22.87;33.33;97691.19;5039177;28;20436;-58
2021/10/22 11:03:24;;;;;;;0.88;0.28;;;;;;;22.84;33.42;97694.28;5026135;28;20053;-54
2021/10/22 11:06:10;;;;;;;2.47;0.40;;;;;;;22.84;33.48;97688.88;5040919;28;20513;-57
2021/10/22 11:08:48;;;;;;;1.67;0.40;;;;;;;22.80;33.38;97687.59;5017556;28;20057;-54
2021/10/22 11:11:33;;;;;;;1.58;0.30;;;;;;;22.79;33.30;97696.78;5040898;28;20044;-58
2021/10/22 11:14:14;;;;;;;2.33;0.60;;;;;;;22.76;33.23;97703.44;5050585;28;20571;-58
2021/10/22 11:16:47;;;;;;;4.28;0.52;;;;;;;22.72;32.94;97690.50;5037156;28;20716;-56
2021/10/22 11:19:19;;;;;;;2.67;0.40;;;;;;;22.67;32.95;97698.38;5038615;28;20083;-53
2021/10/22 11:21:47;;;;;;;0.70;0.20;;;;;;;22.69;32.88;97699.03;5042691;28;20056;-62
2021/10/22 11:24:19;;;;;;;1.00;0.30;;;;;;;22.66;32.94;97707.53;5037777;28;20049;-60
2021/10/22 11:26:54;;;;;;;2.58;0.45;;;;;;;22.61;32.82;97700.03;5041874;28;20078;-60
2021/10/22 11:29:24;;;;;;;1.67;0.50;;;;;;;22.68;32.89;97702.78;5035482;28;20059;-56
2021/10/22 11:31:53;;;;;;;0.98;0.32;;;;;;;22.67;32.66;97714.63;5034982;28;20049;-58
2021/10/22 11:34:23;;;;;;;1.38;0.40;;;;;;;22.66;33.02;97694.00;5035927;28;20053;-56
2021/10/22 11:36:56;;;;;;;2.35;0.38;;;;;;;22.59;33.04;97696.66;5057342;28;20060;-57
2021/10/22 11:39:26;;;;;;;2.20;0.60;;;;;;;22.61;32.76;97710.84;5036304;28;20056;-58
2021/10/22 11:42:04;;;;;;;0.95;0.25;;;;;;;22.54;32.80;97704.56;5040310;28;20052;-58
2021/10/22 11:44:34;;;;;;;1.38;0.80;;;;;;;22.55;32.70;97715.19;5036051;28;20052;-56
2021/10/22 11:47:02;;;;;;;0.70;0.40;;;;;;;22.61;32.65;97711.69;5030325;28;20048;-57
2021/10/22 11:49:35;;;;;;;1.45;0.52;;;;;;;22.53;32.65;97713.72;5035849;28;20056;-58